DFW Logo
DALLAS/FORT WORTH METROPLEX WEATHER
78°F
DFW AIRPORT OBSERVATIONS
WINDPRESSURE
STATIONDATETIMETEMPDEWRHWCHIDIRSPEEDVISIBILITYWEATHERCLOUDSSLSTALTRAINFLIGHT RULES
(F)(F)(%)(F)(F)(mph)(miles)(x100 ft)(mb)(inHg)(inHg)(in)
KDFW7/21/20244:53 am786974SSW107.00ThunderstormFEW19 BKN70 OVC90 1014.8029.4230.00TVFR
KDFW7/21/20243:53 am81655883SSE810.00Light RainSCT70 OVC100 1014.6029.4230.00TVFR
KDFW7/21/20242:53 am82645584S610.00CloudyBKN80 OVC120 1015.1029.4330.010.00VFR
KDFW7/21/20241:53 am82645584SE610.00CloudyOVC110 1015.0029.4230.000.00VFR
KDFW7/21/202412:53 am82635383S610.00Mostly CloudyBKN130 BKN250 1015.2029.4330.010.00VFR
Updated: Jul 21, 2024 - 4:53 am

STATIONDATETIMEMETAR
KDFW7/21/20244:53 amKDFW 210953Z 21009KT 7SM -TSRA FEW019 BKN070CB OVC090 26/21 A3000 RMK AO2 TSB45 SLP148 OCNL LTGIC SW TS SW MOV NE P0000 T02560206 $
KDFW7/21/20243:53 amKDFW 210853Z 16007KT 10SM -RA SCT070 OVC100 27/18 A3000 RMK AO2 RAB53 SLP146 P0000 60000 T02720183 58005 $
KDFW7/21/20242:53 amKDFW 210753Z 17005KT 10SM BKN080 OVC120 28/18 A3001 RMK AO2 SLP151 T02780178 $
KDFW7/21/20241:53 amKDFW 210653Z 14005KT 10SM OVC110 28/18 A3000 RMK AO2 SLP150 T02780178 $
KDFW7/21/202412:53 amKDFW 210553Z 17005KT 10SM BKN130 BKN250 28/17 A3001 RMK AO2 SLP152 T02780172 10328 20272 403440222 51008 $
Updated: Jul 21, 2024 - 4:53 am